createdAt,value
2023-05-19T00:01:12.796Z,80.30
2023-05-19T00:11:13.104Z,81.94
2023-05-19T00:21:13.041Z,81.53
2023-05-19T00:31:13.382Z,82.86
2023-05-19T00:41:13.457Z,81.57
2023-05-19T00:51:13.630Z,78.91
2023-05-19T01:01:13.829Z,77.65
2023-05-19T01:11:14.218Z,77.69
2023-05-19T01:21:14.114Z,77.89
2023-05-19T01:31:14.309Z,77.48
2023-05-19T01:41:14.477Z,77.69
2023-05-19T01:51:14.716Z,78.13
2023-05-19T02:01:14.802Z,79.29
2023-05-19T02:11:14.994Z,80.49
2023-05-19T02:21:15.127Z,81.10
2023-05-19T02:31:15.473Z,81.10
2023-05-19T02:41:15.712Z,81.21
2023-05-19T02:51:15.567Z,82.84
2023-05-19T03:01:15.727Z,82.75
2023-05-19T03:11:15.906Z,83.56
2023-05-19T03:21:16.055Z,83.66
2023-05-19T03:31:16.405Z,83.97
2023-05-19T03:41:16.358Z,81.07
2023-05-19T03:51:16.584Z,79.74
2023-05-19T04:01:16.780Z,79.39
2023-05-19T04:11:16.912Z,78.58
2023-05-19T04:21:17.091Z,78.38
2023-05-19T04:31:17.405Z,76.29
2023-05-19T04:41:25.218Z,78.34
2023-05-19T04:51:17.608Z,79.25
2023-05-19T05:01:17.697Z,80.18
2023-05-19T05:11:17.924Z,80.44
2023-05-19T05:21:18.071Z,80.14
2023-05-19T05:31:18.313Z,79.80
2023-05-19T05:41:18.352Z,79.49
2023-05-19T05:51:18.541Z,78.84
2023-05-19T06:01:18.726Z,78.23
2023-05-19T06:11:19.127Z,76.83
2023-05-19T06:21:19.083Z,78.05
2023-05-19T06:31:19.324Z,77.61
2023-05-19T06:41:19.377Z,76.15
2023-05-19T06:51:19.572Z,75.50
2023-05-19T07:01:19.772Z,76.35
2023-05-19T07:11:20.181Z,75.33
2023-05-19T07:21:20.097Z,75.50
2023-05-19T07:31:20.429Z,72.52
2023-05-19T07:41:20.509Z,73.91
2023-05-19T07:51:20.699Z,73.97
2023-05-19T08:01:20.922Z,74.11
2023-05-19T08:11:21.065Z,72.69
2023-05-19T08:21:21.097Z,69.48
2023-05-19T08:31:21.506Z,72.14
2023-05-19T08:41:21.746Z,71.37
2023-05-19T08:51:21.592Z,73.26
2023-05-19T09:01:21.765Z,71.64
2023-05-19T09:11:21.986Z,72.28
2023-05-19T09:21:22.206Z,73.46
2023-05-19T09:31:22.288Z,70.59
2023-05-19T09:41:22.321Z,72.21
2023-05-19T09:51:22.520Z,70.48
2023-05-19T10:01:22.672Z,67.68
2023-05-19T10:11:22.901Z,66.63
2023-05-19T10:21:22.964Z,68.12
2023-05-19T10:31:23.173Z,67.79
2023-05-19T10:41:23.528Z,65.80
2023-05-19T10:51:23.528Z,64.86
2023-05-19T11:01:23.818Z,67.62
2023-05-19T11:11:23.805Z,68.12
2023-05-19T11:21:24.060Z,67.79
2023-05-19T11:31:24.366Z,64.93
2023-05-19T11:41:24.322Z,65.73
2023-05-19T11:51:24.583Z,66.20
2023-05-19T12:01:24.619Z,66.85
2023-05-19T12:11:24.818Z,64.86
2023-05-19T12:21:25.075Z,66.44
2023-05-19T12:31:26.185Z,66.88
2023-05-19T12:41:25.245Z,64.29
2023-05-19T12:51:25.681Z,67.82
2023-05-19T13:01:25.758Z,65.77
2023-05-19T13:11:25.864Z,67.11
2023-05-19T13:21:26.030Z,68.63
2023-05-19T13:31:26.275Z,69.88
2023-05-19T13:41:26.402Z,70.12
2023-05-19T13:51:26.863Z,69.51
2023-05-19T14:01:26.618Z,72.28
2023-05-19T14:11:26.838Z,68.19
2023-05-19T14:21:27.017Z,68.36
2023-05-19T14:31:27.365Z,69.04
2023-05-19T14:41:27.331Z,70.72
2023-05-19T14:51:28.008Z,66.78
2023-05-19T15:01:27.614Z,67.62
2023-05-19T15:11:27.788Z,67.22
2023-05-19T15:21:27.942Z,69.37
2023-05-19T15:31:28.219Z,68.10
2023-05-19T15:41:28.285Z,67.19
2023-05-19T15:51:28.467Z,63.79
2023-05-19T16:01:28.688Z,63.73
2023-05-19T16:11:28.782Z,64.43
2023-05-19T16:21:28.956Z,63.00
2023-05-19T16:31:29.164Z,61.50
2023-05-19T16:41:29.326Z,62.05
2023-05-19T16:51:29.545Z,67.13
2023-05-19T17:01:29.668Z,66.69
2023-05-19T17:11:29.766Z,65.68
2023-05-19T17:21:29.927Z,61.50
2023-05-19T17:31:30.120Z,56.38
2023-05-19T17:41:30.277Z,59.63
2023-05-19T17:51:30.475Z,57.51
2023-05-19T18:01:30.658Z,60.33
2023-05-19T18:11:30.951Z,63.36
2023-05-19T18:21:31.004Z,67.43
2023-05-19T18:31:31.221Z,76.06
2023-05-19T18:41:31.410Z,80.50
2023-05-19T18:51:31.598Z,82.85
2023-05-19T19:01:31.786Z,85.11
2023-05-19T19:11:31.916Z,86.77
2023-05-19T19:21:32.079Z,86.06
2023-05-19T19:31:32.303Z,85.11
2023-05-19T19:41:32.344Z,85.82
2023-05-19T19:51:32.551Z,83.54
2023-05-19T20:01:32.789Z,82.52
2023-05-19T20:11:33.057Z,83.64
2023-05-19T20:21:33.103Z,83.23
2023-05-19T20:31:33.345Z,84.05
2023-05-19T20:41:33.511Z,84.25
2023-05-19T20:51:33.713Z,84.66
2023-05-19T21:01:33.929Z,85.06
2023-05-19T21:11:34.097Z,86.43
2023-05-19T21:21:34.157Z,85.96
2023-05-19T21:31:34.436Z,84.84
2023-05-19T21:41:34.406Z,85.00
2023-05-19T21:51:34.683Z,84.39
2023-05-19T22:01:34.799Z,86.68
2023-05-19T22:11:35.073Z,87.43
2023-05-19T22:21:35.315Z,86.21
2023-05-19T22:31:35.671Z,87.53
2023-05-19T22:41:35.356Z,88.22
2023-05-19T22:51:35.554Z,88.73
2023-05-19T23:01:35.849Z,88.08
2023-05-19T23:11:36.027Z,89.04
2023-05-19T23:21:36.075Z,90.36
2023-05-19T23:31:36.381Z,91.43
2023-05-19T23:41:36.444Z,93.62
2023-05-19T23:51:36.639Z,93.76
